Time,TemperatureF,DewpointF,PressureIn,WindDirection,WindDirectionDegrees,WindSpeedMPH,WindSpeedGustMPH,Humidity,HourlyPrecipIn,Conditions,Clouds,dailyrainin,SolarRadiationWatts/m^2,SoftwareType,DateUTC
2013-02-23 00:01:00,30.6,24.5,30.25,West,270,0.0,0.0,78,0.00,SCT,SCT,0.00,0.0,WeatherDisplay:10.37,2013-02-23 05:01:00,
2013-02-23 00:05:00,30.6,24.5,30.25,West,270,0.0,0.0,78,0.00,SCT,SCT,0.00,0.0,WeatherDisplay:10.37,2013-02-23 05:05:00,
2013-02-23 00:10:00,30.4,24.0,30.25,West,270,0.0,0.0,77,0.00,SCT,SCT,0.00,0.0,WeatherDisplay:10.37,2013-02-23 05:10:00,
2013-02-23 00:15:00,30.4,24.0,30.25,West,270,0.0,0.0,77,0.00,SCT,SCT,0.00,0.0,WeatherDisplay:10.37,2013-02-23 05:15:00,
2013-02-23 00:25:00,30.1,23.8,30.24,West,270,0.0,0.0,77,0.00,SCT,SCT,0.00,0.0,WeatherDisplay:10.37,2013-02-23 05:25:00,
2013-02-23 00:30:00,30.0,23.7,30.24,West,270,0.0,0.0,77,0.00,SCT,SCT,0.00,0.0,WeatherDisplay:10.37,2013-02-23 05:30:00,
2013-02-23 00:35:00,29.7,23.4,30.24,West,270,0.0,0.0,77,0.00,SCT,SCT,0.00,0.0,WeatherDisplay:10.37,2013-02-23 05:35:00,
2013-02-23 00:40:00,29.5,23.2,30.24,West,270,0.0,0.0,77,0.00,SCT,SCT,0.00,0.0,WeatherDisplay:10.37,2013-02-23 05:40:00,
2013-02-23 00:45:00,29.5,23.5,30.24,West,270,0.0,0.0,78,0.00,SCT,SCT,0.00,0.0,WeatherDisplay:10.37,2013-02-23 05:45:00,
2013-02-23 00:55:00,28.8,22.8,30.23,West,270,0.0,0.0,78,0.00,SCT,SCT,0.00,0.0,WeatherDisplay:10.37,2013-02-23 05:55:00,
2013-02-23 01:01:00,28.4,22.7,30.23,West,270,0.0,0.0,79,0.00,SCT,SCT,0.00,0.0,WeatherDisplay:10.37,2013-02-23 06:01:00,
2013-02-23 01:10:00,28.2,22.5,30.23,West,270,0.0,0.0,79,0.00,SCT,SCT,0.00,0.0,WeatherDisplay:10.37,2013-02-23 06:10:00,
2013-02-23 01:15:00,28.0,22.7,30.23,West,270,0.0,0.0,80,0.00,SCT,SCT,0.00,0.0,WeatherDisplay:10.37,2013-02-23 06:15:00,
2013-02-23 01:20:00,28.0,22.7,30.23,West,270,0.0,0.0,80,0.00,SCT,SCT,0.00,0.0,WeatherDisplay:10.37,2013-02-23 06:20:00,
2013-02-23 01:30:00,27.9,22.8,30.23,West,270,0.0,0.0,81,0.00,SCT,SCT,0.00,0.0,WeatherDisplay:10.37,2013-02-23 06:30:00,
2013-02-23 01:40:00,28.2,23.1,30.23,West,270,0.0,0.0,81,0.00,SCT,SCT,0.00,0.0,WeatherDisplay:10.37,2013-02-23 06:40:00,
2013-02-23 01:45:00,28.2,23.4,30.22,West,270,0.0,0.0,82,0.00,SCT,SCT,0.00,0.0,WeatherDisplay:10.37,2013-02-23 06:45:00,
2013-02-23 01:55:00,28.4,23.3,30.22,West,270,0.0,0.0,81,0.00,SCT,SCT,0.00,0.0,WeatherDisplay:10.37,2013-02-23 06:55:00,
2013-02-23 02:01:00,28.4,23.6,30.22,West,270,0.0,0.0,82,0.00,SCT,SCT,0.00,0.0,WeatherDisplay:10.37,2013-02-23 07:01:00,
2013-02-23 02:10:00,28.6,23.8,30.22,West,270,0.0,0.0,82,0.00,OVC,SCT,0.00,0.0,WeatherDisplay:10.37,2013-02-23 07:10:00,
2013-02-23 02:15:00,28.8,24.0,30.22,West,270,0.0,0.0,82,0.00,OVC,SCT,0.00,0.0,WeatherDisplay:10.37,2013-02-23 07:15:00,
2013-02-23 02:25:00,28.8,24.0,30.22,West,270,0.0,0.0,82,0.00,OVC,SCT,0.00,0.0,WeatherDisplay:10.37,2013-02-23 07:25:00,
2013-02-23 02:30:00,28.8,24.0,30.22,West,270,0.0,0.0,82,0.00,OVC,SCT,0.00,0.0,WeatherDisplay:10.37,2013-02-23 07:30:00,
2013-02-23 02:40:00,28.9,24.4,30.22,West,270,0.0,0.0,83,0.00,OVC,SCT,0.00,0.0,WeatherDisplay:10.37,2013-02-23 07:40:00,
2013-02-23 02:45:00,29.1,24.6,30.22,West,270,0.0,0.0,83,0.00,OVC,SCT,0.00,0.0,WeatherDisplay:10.37,2013-02-23 07:45:00,
2013-02-23 02:55:00,29.3,24.8,30.22,West,270,0.0,0.0,83,0.00,OVC,SCT,0.00,0.0,WeatherDisplay:10.37,2013-02-23 07:55:00,
2013-02-23 03:01:00,29.3,24.8,30.21,WNW,283,0.0,0.0,83,0.00,OVC,SCT,0.00,0.0,WeatherDisplay:10.37,2013-02-23 08:01:00,
2013-02-23 03:10:00,29.5,25.0,30.20,North,0,0.0,0.0,83,0.00,OVC,SCT,0.00,0.0,WeatherDisplay:10.37,2013-02-23 08:10:00,
2013-02-23 03:15:00,29.5,25.0,30.20,North,0,0.0,0.0,83,0.00,OVC,SCT,0.00,0.0,WeatherDisplay:10.37,2013-02-23 08:15:00,
2013-02-23 03:25:00,29.7,25.4,30.20,North,0,0.0,0.0,84,0.00,OVC,SCT,0.00,0.0,WeatherDisplay:10.37,2013-02-23 08:25:00,
2013-02-23 03:30:00,29.7,25.1,30.20,North,0,0.0,0.0,83,0.00,OVC,SCT,0.00,0.0,WeatherDisplay:10.37,2013-02-23 08:30:00,
2013-02-23 03:40:00,29.8,25.3,30.19,North,0,0.0,0.0,83,0.00,OVC,SCT,0.00,0.0,WeatherDisplay:10.37,2013-02-23 08:40:00,
2013-02-23 03:45:00,29.8,25.3,30.19,North,0,0.0,0.0,83,0.00,OVC,SCT,0.00,0.0,WeatherDisplay:10.37,2013-02-23 08:45:00,
2013-02-23 03:55:00,29.8,25.3,30.19,North,0,0.0,0.0,83,0.00,OVC,SCT,0.00,0.0,WeatherDisplay:10.37,2013-02-23 08:55:00,
2013-02-23 04:01:00,29.8,25.3,30.20,North,0,0.0,0.0,83,0.00,OVC,SCT,0.00,0.0,WeatherDisplay:10.37,2013-02-23 09:01:00,
2013-02-23 04:10:00,29.8,25.3,30.19,North,0,0.0,0.0,83,0.00,OVC,SCT,0.00,0.0,WeatherDisplay:10.37,2013-02-23 09:10:00,
2013-02-23 04:15:00,29.8,25.3,30.19,North,0,0.0,0.0,83,0.00,OVC,SCT,0.00,0.0,WeatherDisplay:10.37,2013-02-23 09:15:00,
2013-02-23 04:25:00,30.0,25.5,30.18,North,0,0.0,0.0,83,0.00,OVC,SCT,0.00,0.0,WeatherDisplay:10.37,2013-02-23 09:25:00,
2013-02-23 04:30:00,30.0,25.5,30.18,NNE,27,0.0,0.0,83,0.00,OVC,SCT,0.00,0.0,WeatherDisplay:10.37,2013-02-23 09:30:00,
2013-02-23 04:40:00,30.0,25.5,30.18,SSE,147,0.0,0.0,83,0.00,OVC,SCT,0.00,0.0,WeatherDisplay:10.37,2013-02-23 09:40:00,
2013-02-23 04:45:00,30.2,25.7,30.18,West,267,0.0,0.0,83,0.00,OVC,SCT,0.00,0.0,WeatherDisplay:10.37,2013-02-23 09:45:00,
2013-02-23 04:55:00,30.3,25.7,30.18,West,270,0.0,0.0,83,0.00,OVC,SCT,0.00,0.0,WeatherDisplay:10.37,2013-02-23 09:55:00,
2013-02-23 05:01:00,30.4,25.8,30.18,West,270,0.0,0.0,83,0.00,OVC,SCT,0.00,0.0,WeatherDisplay:10.37,2013-02-23 10:01:00,
2013-02-23 05:10:00,30.4,26.1,30.18,West,270,0.0,0.0,84,0.00,OVC,SCT,0.00,0.0,WeatherDisplay:10.37,2013-02-23 10:10:00,
2013-02-23 05:15:00,30.4,26.1,30.18,West,270,0.0,0.0,84,0.00,OVC,SCT,0.00,0.0,WeatherDisplay:10.37,2013-02-23 10:15:00,
2013-02-23 05:25:00,30.4,25.8,30.18,West,270,0.0,0.0,83,0.00,SCT,SCT,0.00,0.0,WeatherDisplay:10.37,2013-02-23 10:25:00,
2013-02-23 05:30:00,30.4,25.8,30.18,West,270,0.0,0.0,83,0.00,SCT,SCT,0.00,0.0,WeatherDisplay:10.37,2013-02-23 10:30:00,
2013-02-23 05:40:00,30.6,26.3,30.17,West,270,0.0,0.0,84,0.00,BKN,SCT,0.00,0.0,WeatherDisplay:10.37,2013-02-23 10:40:00,
2013-02-23 05:45:00,30.6,26.3,30.17,West,270,0.0,0.0,84,0.00,BKN,SCT,0.00,0.0,WeatherDisplay:10.37,2013-02-23 10:45:00,
2013-02-23 05:55:00,30.6,26.3,30.17,West,270,0.0,0.0,84,0.00,BKN,SCT,0.00,0.0,WeatherDisplay:10.37,2013-02-23 10:55:00,
2013-02-23 06:01:00,30.6,26.0,30.18,West,270,0.0,0.0,83,0.00,BKN,SCT,0.00,0.0,WeatherDisplay:10.37,2013-02-23 11:01:00,
2013-02-23 06:10:00,30.7,26.2,30.18,West,270,0.0,0.0,83,0.00,OVC,SCT,0.00,0.0,WeatherDisplay:10.37,2013-02-23 11:10:00,
2013-02-23 06:15:00,30.7,26.2,30.17,West,270,0.0,0.0,83,0.00,OVC,SCT,0.00,0.0,WeatherDisplay:10.37,2013-02-23 11:15:00,
2013-02-23 06:25:00,30.7,26.2,30.17,West,270,0.0,0.0,83,0.00,OVC,SCT,0.00,0.0,WeatherDisplay:10.37,2013-02-23 11:25:00,
2013-02-23 06:31:00,30.7,26.2,30.17,West,270,0.0,0.0,83,0.00,OVC,SCT,0.00,0.0,WeatherDisplay:10.37,2013-02-23 11:31:00,
2013-02-23 06:40:00,30.7,25.9,30.16,West,270,0.0,0.0,82,0.00,OVC,SCT,0.00,0.0,WeatherDisplay:10.37,2013-02-23 11:40:00,
2013-02-23 06:45:00,30.7,26.2,30.16,West,270,0.0,0.0,83,0.00,OVC,SCT,0.00,0.0,WeatherDisplay:10.37,2013-02-23 11:45:00,
2013-02-23 06:50:00,30.8,26.3,30.16,West,270,0.0,0.0,83,0.00,OVC,SCT,0.00,0.0,WeatherDisplay:10.37,2013-02-23 11:50:00,
2013-02-23 07:01:00,31.1,26.5,30.17,West,270,0.0,0.0,83,0.00,OVC,SCT,0.00,0.0,WeatherDisplay:10.37,2013-02-23 12:01:00,
2013-02-23 07:10:00,31.1,26.2,30.17,West,270,0.0,0.0,82,0.00,FEW,SCT,0.00,0.0,WeatherDisplay:10.37,2013-02-23 12:10:00,
2013-02-23 07:15:00,31.3,26.4,30.16,West,270,0.0,0.0,82,0.00,FEW,SCT,0.00,0.0,WeatherDisplay:10.37,2013-02-23 12:15:00,
2013-02-23 07:25:00,31.5,26.6,30.16,West,270,0.0,0.0,82,0.00,FEW,SCT,0.00,0.0,WeatherDisplay:10.37,2013-02-23 12:25:00,
2013-02-23 07:31:00,31.6,27.1,30.16,West,270,0.0,0.0,83,0.00,FEW,SCT,0.00,0.0,WeatherDisplay:10.37,2013-02-23 12:31:00,
2013-02-23 07:40:00,32.0,27.1,30.16,West,270,0.0,0.0,82,0.00,SCT,SCT,0.00,0.0,WeatherDisplay:10.37,2013-02-23 12:40:00,
2013-02-23 07:45:00,32.0,27.1,30.16,West,270,0.0,0.0,82,0.00,SCT,SCT,0.00,0.0,WeatherDisplay:10.37,2013-02-23 12:45:00,
2013-02-23 07:55:00,32.2,27.0,30.17,West,270,0.0,0.0,81,0.00,SCT,SCT,0.00,0.0,WeatherDisplay:10.37,2013-02-23 12:55:00,
2013-02-23 08:01:00,32.3,27.1,30.16,West,270,0.0,0.0,81,0.00,SCT,SCT,0.00,0.0,WeatherDisplay:10.37,2013-02-23 13:01:00,
2013-02-23 08:10:00,32.5,27.3,30.16,West,270,0.0,0.0,81,0.00,SCT,SCT,0.00,0.0,WeatherDisplay:10.37,2013-02-23 13:10:00,
2013-02-23 08:15:00,32.6,27.4,30.16,West,270,0.0,0.0,81,0.00,SCT,SCT,0.00,0.0,WeatherDisplay:10.37,2013-02-23 13:15:00,
2013-02-23 08:25:00,32.8,27.3,30.16,SW,232,0.0,2.0,80,0.00,BKN,SCT,0.00,0.0,WeatherDisplay:10.37,2013-02-23 13:25:00,
2013-02-23 08:30:00,33.0,27.5,30.15,ESE,114,0.0,2.0,80,0.00,BKN,SCT,0.00,0.0,WeatherDisplay:10.37,2013-02-23 13:30:00,
2013-02-23 08:40:00,33.4,27.6,30.16,SE,129,0.0,2.0,79,0.00,OVC,SCT,0.00,0.0,WeatherDisplay:10.37,2013-02-23 13:40:00,
2013-02-23 08:45:00,33.6,27.8,30.15,SE,135,1.0,2.0,79,0.00,OVC,SCT,0.00,0.0,WeatherDisplay:10.37,2013-02-23 13:45:00,
2013-02-23 08:55:00,34.0,27.9,30.15,SE,135,1.0,2.0,78,0.00,OVC,SCT,0.00,0.0,WeatherDisplay:10.37,2013-02-23 13:55:00,
2013-02-23 09:01:00,34.2,27.7,30.15,SE,135,1.0,3.0,77,0.00,OVC,SCT,0.00,0.0,WeatherDisplay:10.37,2013-02-23 14:01:00,
2013-02-23 09:10:00,34.7,28.2,30.14,SSE,161,0.0,2.0,77,0.00,SCT,SCT,0.00,0.0,WeatherDisplay:10.37,2013-02-23 14:10:00,
2013-02-23 09:15:00,34.9,28.4,30.14,SSE,154,0.0,2.0,77,0.00,SCT,SCT,0.00,0.0,WeatherDisplay:10.37,2013-02-23 14:15:00,
2013-02-23 09:20:00,35.1,28.6,30.14,SE,133,1.0,2.0,77,0.00,SCT,SCT,0.00,0.0,WeatherDisplay:10.37,2013-02-23 14:20:00,
2013-02-23 09:30:00,35.6,28.8,30.14,SE,143,2.0,3.0,76,0.00,SCT,SCT,0.00,0.0,WeatherDisplay:10.37,2013-02-23 14:30:00,
2013-02-23 09:40:00,35.6,28.5,30.14,SE,132,2.0,4.0,75,0.00,OVC,SCT,0.00,0.0,WeatherDisplay:10.37,2013-02-23 14:40:00,
2013-02-23 09:45:00,35.6,28.5,30.13,ESE,122,1.0,3.0,75,0.00,OVC,SCT,0.00,0.0,WeatherDisplay:10.37,2013-02-23 14:45:00,
2013-02-23 09:55:00,36.1,29.0,30.13,ESE,123,1.0,3.0,75,0.00,OVC,SCT,0.00,0.0,WeatherDisplay:10.37,2013-02-23 14:55:00,
2013-02-23 10:01:00,36.0,28.8,30.12,ESE,102,1.0,3.0,75,0.00,OVC,SCT,0.00,0.0,WeatherDisplay:10.37,2013-02-23 15:01:00,
2013-02-23 10:10:00,36.1,29.0,30.12,ESE,115,1.0,3.0,75,0.00,OVC,SCT,0.00,0.0,WeatherDisplay:10.37,2013-02-23 15:10:00,
2013-02-23 10:15:00,36.3,28.8,30.12,SE,128,1.0,4.0,74,0.00,OVC,SCT,0.00,0.0,WeatherDisplay:10.37,2013-02-23 15:15:00,
2013-02-23 10:25:00,36.3,28.8,30.12,SE,140,1.0,5.0,74,0.00,OVC,SCT,0.00,0.0,WeatherDisplay:10.37,2013-02-23 15:25:00,
2013-02-23 10:30:00,36.5,28.7,30.12,SE,141,2.0,5.0,73,0.00,OVC,SCT,0.00,0.0,WeatherDisplay:10.37,2013-02-23 15:30:00,
2013-02-23 10:40:00,37.0,29.2,30.11,SSE,148,1.0,4.0,73,0.00,OVC,SCT,0.00,0.0,WeatherDisplay:10.37,2013-02-23 15:40:00,
2013-02-23 10:45:00,37.2,29.0,30.11,SE,139,1.0,6.0,72,0.00,OVC,SCT,0.00,0.0,WeatherDisplay:10.37,2013-02-23 15:45:00,
2013-02-23 10:55:00,37.4,28.9,30.11,SSE,147,2.0,6.0,71,0.00,OVC,SCT,0.00,0.0,WeatherDisplay:10.37,2013-02-23 15:55:00,
2013-02-23 11:01:00,37.6,29.0,30.10,SSE,156,1.0,6.0,71,0.00,OVC,SCT,0.00,0.0,WeatherDisplay:10.37,2013-02-23 16:01:00,
2013-02-23 11:10:00,37.7,29.2,30.10,SE,139,2.0,6.0,71,0.00,OVC,SCT,0.00,0.0,WeatherDisplay:10.37,2013-02-23 16:10:00,
2013-02-23 11:15:00,37.8,28.9,30.10,ESE,122,3.0,6.0,70,0.00,OVC,SCT,0.00,0.0,WeatherDisplay:10.37,2013-02-23 16:15:00,
2013-02-23 11:25:00,37.8,28.9,30.09,SE,139,1.0,7.0,70,0.00,OVC,SCT,0.00,0.0,WeatherDisplay:10.37,2013-02-23 16:25:00,
2013-02-23 11:31:00,37.9,28.7,30.09,SSE,153,3.0,8.0,69,0.00,OVC,SCT,0.00,0.0,WeatherDisplay:10.37,2013-02-23 16:31:00,
2013-02-23 11:40:00,38.1,28.8,30.09,SSE,151,2.0,6.0,69,0.00,OVC,SCT,0.00,0.0,WeatherDisplay:10.37,2013-02-23 16:40:00,
2013-02-23 11:45:00,38.1,28.8,30.08,South,172,5.0,8.0,69,0.00,OVC,SCT,0.00,0.0,WeatherDisplay:10.37,2013-02-23 16:45:00,
2013-02-23 11:55:00,37.9,29.0,30.08,SE,140,2.0,7.0,70,0.00,OVC,SCT,0.00,0.0,WeatherDisplay:10.37,2013-02-23 16:55:00,
2013-02-23 12:01:00,38.1,29.1,30.07,SSE,148,1.0,6.0,70,0.00,OVC,SCT,0.00,0.0,WeatherDisplay:10.37,2013-02-23 17:01:00,
2013-02-23 12:10:00,38.1,29.2,30.07,ESE,116,2.0,6.0,70,0.00,OVC,SCT,0.00,0.0,WeatherDisplay:10.37,2013-02-23 17:10:00,
2013-02-23 12:15:00,38.5,29.5,30.07,ESE,112,0.0,6.0,70,0.00,OVC,SCT,0.00,0.0,WeatherDisplay:10.37,2013-02-23 17:15:00,
2013-02-23 12:25:00,38.3,29.4,30.07,SSE,161,2.0,6.0,70,0.00,OVC,SCT,0.00,0.0,WeatherDisplay:10.37,2013-02-23 17:25:00,
2013-02-23 12:30:00,38.3,29.4,30.06,SSE,161,1.0,6.0,70,0.00,OVC,SCT,0.00,0.0,WeatherDisplay:10.37,2013-02-23 17:30:00,
2013-02-23 12:40:00,38.5,29.5,30.06,SE,135,1.0,4.0,70,0.00,OVC,SCT,0.00,0.0,WeatherDisplay:10.37,2013-02-23 17:40:00,
2013-02-23 12:45:00,38.4,29.4,30.05,SE,142,2.0,6.0,70,0.00,OVC,SCT,0.00,0.0,WeatherDisplay:10.37,2013-02-23 17:45:00,
2013-02-23 12:55:00,38.5,29.5,30.05,SE,144,2.0,7.0,70,0.00,OVC,SCT,0.00,0.0,WeatherDisplay:10.37,2013-02-23 17:55:00,
2013-02-23 13:01:00,38.5,29.5,30.05,SSE,150,1.0,5.0,70,0.00,OVC,SCT,0.00,0.0,WeatherDisplay:10.37,2013-02-23 18:01:00,
2013-02-23 13:10:00,38.7,29.7,30.05,SE,134,1.0,7.0,70,0.00,OVC,SCT,0.00,0.0,WeatherDisplay:10.37,2013-02-23 18:10:00,
2013-02-23 13:15:00,38.8,29.5,30.05,ESE,121,2.0,6.0,69,0.00,OVC,SCT,0.00,0.0,WeatherDisplay:10.37,2013-02-23 18:15:00,
2013-02-23 13:25:00,38.7,29.4,30.05,SE,124,2.0,6.0,69,0.00,OVC,SCT,0.00,0.0,WeatherDisplay:10.37,2013-02-23 18:25:00,
2013-02-23 13:30:00,38.7,29.0,30.04,SE,132,5.0,8.0,68,0.00,OVC,SCT,0.00,0.0,WeatherDisplay:10.37,2013-02-23 18:30:00,
2013-02-23 13:40:00,38.7,29.0,30.05,SE,134,1.0,10.0,68,0.00,OVC,SCT,0.00,0.0,WeatherDisplay:10.37,2013-02-23 18:40:00,
2013-02-23 13:45:00,38.8,29.2,30.05,SE,137,2.0,8.0,68,0.00,OVC,SCT,0.00,0.0,WeatherDisplay:10.37,2013-02-23 18:45:00,
2013-02-23 13:55:00,38.8,29.2,30.04,SE,138,1.0,6.0,68,0.00,OVC,SCT,0.00,0.0,WeatherDisplay:10.37,2013-02-23 18:55:00,
2013-02-23 14:01:00,38.7,29.4,30.04,SE,131,1.0,5.0,69,0.00,OVC,SCT,0.00,0.0,WeatherDisplay:10.37,2013-02-23 19:01:00,
2013-02-23 14:10:00,38.7,29.4,30.05,SE,134,1.0,6.0,69,0.00,OVC,SCT,0.00,0.0,WeatherDisplay:10.37,2013-02-23 19:10:00,
2013-02-23 14:15:00,38.7,29.4,30.04,SE,124,1.0,6.0,69,0.00,OVC,SCT,0.00,0.0,WeatherDisplay:10.37,2013-02-23 19:15:00,
2013-02-23 14:25:00,38.7,29.7,30.03,SSE,150,1.0,6.0,70,0.00,OVC,SCT,0.00,0.0,WeatherDisplay:10.37,2013-02-23 19:25:00,
2013-02-23 14:30:00,38.8,29.9,30.03,SSE,157,1.0,5.0,70,0.00,OVC,SCT,0.00,0.0,WeatherDisplay:10.37,2013-02-23 19:30:00,
2013-02-23 14:40:00,38.7,30.1,30.02,ESE,121,2.0,5.0,71,0.00,OVC,SCT,0.00,0.0,WeatherDisplay:10.37,2013-02-23 19:40:00,
2013-02-23 14:45:00,38.7,30.1,30.02,ESE,122,1.0,6.0,71,0.00,OVC,SCT,0.00,0.0,WeatherDisplay:10.37,2013-02-23 19:45:00,
2013-02-23 14:55:00,38.5,30.2,30.03,SE,143,1.0,5.0,72,0.00,OVC,SCT,0.00,0.0,WeatherDisplay:10.37,2013-02-23 19:55:00,
2013-02-23 15:01:00,38.5,30.2,30.03,SE,143,2.0,6.0,72,0.00,OVC,SCT,0.00,0.0,WeatherDisplay:10.37,2013-02-23 20:01:00,
2013-02-23 15:10:00,38.3,30.4,30.02,SE,134,2.0,6.0,73,0.00,OVC,SCT,0.00,0.0,WeatherDisplay:10.37,2013-02-23 20:10:00,
2013-02-23 15:15:00,38.1,30.6,30.02,SE,141,0.0,5.0,74,0.00,OVC,SCT,0.00,0.0,WeatherDisplay:10.37,2013-02-23 20:15:00,
2013-02-23 15:25:00,37.9,30.7,30.02,SE,138,2.0,5.0,75,0.00,OVC,SCT,0.00,0.0,WeatherDisplay:10.37,2013-02-23 20:25:00,
2013-02-23 15:30:00,37.9,31.0,30.01,SSE,150,2.0,6.0,76,0.00,OVC,SCT,0.00,0.0,WeatherDisplay:10.37,2013-02-23 20:30:00,
2013-02-23 15:40:00,37.9,31.4,30.01,SE,134,1.0,4.0,77,0.00,OVC,SCT,0.00,0.0,WeatherDisplay:10.37,2013-02-23 20:40:00,
2013-02-23 15:45:00,37.8,31.2,30.01,ESE,119,1.0,5.0,77,0.00,OVC,SCT,0.00,0.0,WeatherDisplay:10.37,2013-02-23 20:45:00,
2013-02-23 15:55:00,37.8,31.2,30.00,SE,137,0.0,2.0,77,0.00,OVC,SCT,0.00,0.0,WeatherDisplay:10.37,2013-02-23 20:55:00,
2013-02-23 16:01:00,37.7,31.5,29.99,ESE,122,1.0,5.0,78,0.00,OVC,SCT,0.00,0.0,WeatherDisplay:10.37,2013-02-23 21:01:00,
2013-02-23 16:10:00,37.6,31.7,29.99,SE,132,3.0,6.0,79,0.00,OVC,SCT,0.00,0.0,WeatherDisplay:10.37,2013-02-23 21:10:00,
2013-02-23 16:15:00,37.6,31.3,29.98,SE,136,0.0,6.0,78,0.00,OVC,SCT,0.00,0.0,WeatherDisplay:10.37,2013-02-23 21:15:00,
2013-02-23 16:25:00,37.6,31.0,30.00,SE,130,2.0,6.0,77,0.00,OVC,SCT,0.00,0.0,WeatherDisplay:10.37,2013-02-23 21:25:00,
2013-02-23 16:30:00,37.6,31.0,30.00,SSE,168,1.0,6.0,77,0.00,OVC,SCT,0.00,0.0,WeatherDisplay:10.37,2013-02-23 21:30:00,
2013-02-23 16:40:00,37.6,31.3,29.99,SE,131,1.0,6.0,78,0.00,OVC,SCT,0.00,0.0,WeatherDisplay:10.37,2013-02-23 21:40:00,
2013-02-23 16:45:00,37.4,31.5,29.99,SE,127,2.0,6.0,79,0.00,OVC,SCT,0.00,0.0,WeatherDisplay:10.37,2013-02-23 21:45:00,
2013-02-23 16:55:00,37.2,31.3,29.99,ESE,107,1.0,3.0,79,0.00,OVC,SCT,0.00,0.0,WeatherDisplay:10.37,2013-02-23 21:55:00,
2013-02-23 17:01:00,37.1,31.5,29.98,East,98,1.0,5.0,80,0.00,OVC,SCT,0.00,0.0,WeatherDisplay:10.37,2013-02-23 22:01:00,
2013-02-23 17:10:00,37.0,31.4,29.98,East,95,1.0,3.0,80,0.00,OVC,SCT,0.00,0.0,WeatherDisplay:10.37,2013-02-23 22:10:00,
2013-02-23 17:15:00,36.9,31.6,29.98,ESE,121,1.0,5.0,81,0.00,OVC,SCT,0.00,0.0,WeatherDisplay:10.37,2013-02-23 22:15:00,
2013-02-23 17:25:00,36.9,31.6,29.98,ESE,114,1.0,3.0,81,0.00,OVC,SCT,0.00,0.0,WeatherDisplay:10.37,2013-02-23 22:25:00,
2013-02-23 17:31:00,36.7,31.7,29.97,SE,131,1.0,3.0,82,0.00,OVC,SCT,0.00,0.0,WeatherDisplay:10.37,2013-02-23 22:31:00,
2013-02-23 17:40:00,36.7,31.7,29.97,SE,127,0.0,6.0,82,0.00,OVC,SCT,0.00,0.0,WeatherDisplay:10.37,2013-02-23 22:40:00,
2013-02-23 17:45:00,36.7,31.7,29.98,ESE,119,1.0,6.0,82,0.00,OVC,SCT,0.00,0.0,WeatherDisplay:10.37,2013-02-23 22:45:00,
2013-02-23 17:55:00,36.7,32.0,29.97,ESE,114,2.0,7.0,83,0.00,OVC,SCT,0.00,0.0,WeatherDisplay:10.37,2013-02-23 22:55:00,
2013-02-23 18:01:00,36.5,31.8,29.97,ESE,118,1.0,5.0,83,0.00,OVC,SCT,0.00,0.0,WeatherDisplay:10.37,2013-02-23 23:01:00,
2013-02-23 18:10:00,36.3,32.2,29.97,ESE,123,1.0,7.0,85,0.00,OVC,SCT,0.00,0.0,WeatherDisplay:10.37,2013-02-23 23:10:00,
2013-02-23 18:15:00,36.0,32.5,29.97,ESE,122,1.0,6.0,87,0.00,OVC,SCT,0.00,0.0,WeatherDisplay:10.37,2013-02-23 23:15:00,
2013-02-23 18:25:00,35.6,32.7,29.97,SE,135,2.0,6.0,89,0.00,OVC,SCT,0.00,0.0,WeatherDisplay:10.37,2013-02-23 23:25:00,
2013-02-23 18:31:00,35.4,32.8,29.97,ESE,112,1.0,6.0,90,0.00,OVC,SCT,0.00,0.0,WeatherDisplay:10.37,2013-02-23 23:31:00,
2013-02-23 18:40:00,35.1,32.7,29.97,East,100,1.0,2.0,91,0.00,OVC,SCT,0.00,0.0,WeatherDisplay:10.37,2013-02-23 23:40:00,
2013-02-23 18:45:00,34.9,32.8,29.96,East,100,1.0,4.0,92,0.00,OVC,SCT,0.00,0.0,WeatherDisplay:10.37,2013-02-23 23:45:00,
2013-02-23 18:55:00,34.7,32.9,29.95,ESE,105,1.0,5.0,93,0.00,OVC,SCT,0.00,0.0,WeatherDisplay:10.37,2013-02-23 23:55:00,
2013-02-23 19:01:00,34.5,33.0,29.95,ESE,106,1.0,4.0,94,0.00,OVC,SCT,0.00,0.0,WeatherDisplay:10.37,2013-02-24 00:01:00,
2013-02-23 19:10:00,34.5,33.2,29.95,SE,136,0.0,3.0,95,0.00,OVC,SCT,0.00,0.0,WeatherDisplay:10.37,2013-02-24 00:10:00,
2013-02-23 19:15:00,34.3,33.1,29.96,SSE,158,0.0,3.0,95,0.00,OVC,SCT,0.00,0.0,WeatherDisplay:10.37,2013-02-24 00:15:00,
2013-02-23 19:25:00,34.3,33.1,29.95,SE,131,0.0,3.0,95,0.00,BKN,SCT,0.00,0.0,WeatherDisplay:10.37,2013-02-24 00:25:00,
2013-02-23 19:31:00,34.2,32.9,29.96,NW,315,0.0,2.0,95,0.00,BKN,SCT,0.00,0.0,WeatherDisplay:10.37,2013-02-24 00:31:00,
2013-02-23 19:40:00,34.2,32.9,29.95,ESE,121,0.0,2.0,95,0.00,BKN,SCT,0.00,0.0,WeatherDisplay:10.37,2013-02-24 00:40:00,
2013-02-23 19:45:00,34.2,32.9,29.96,East,90,0.0,1.0,95,0.00,BKN,SCT,0.00,0.0,WeatherDisplay:10.37,2013-02-24 00:45:00,
2013-02-23 19:55:00,34.0,33.0,29.95,East,90,0.0,1.0,96,0.00,BKN,SCT,0.00,0.0,WeatherDisplay:10.37,2013-02-24 00:55:00,
2013-02-23 20:01:00,34.0,33.0,29.96,East,90,0.0,2.0,96,0.00,BKN,SCT,0.00,0.0,WeatherDisplay:10.37,2013-02-24 01:01:00,
2013-02-23 20:10:00,33.8,32.8,29.94,East,90,0.0,2.0,96,0.00,OVC,SCT,0.00,0.0,WeatherDisplay:10.37,2013-02-24 01:10:00,
2013-02-23 20:15:00,33.8,33.0,29.93,East,90,1.0,2.0,97,0.00,OVC,SCT,0.00,0.0,WeatherDisplay:10.37,2013-02-24 01:15:00,
2013-02-23 20:25:00,33.6,32.9,29.93,East,90,0.0,1.0,97,0.00,OVC,SCT,0.00,0.0,WeatherDisplay:10.37,2013-02-24 01:25:00,
2013-02-23 20:31:00,33.6,32.9,29.94,East,90,0.0,2.0,97,0.00,OVC,SCT,0.00,0.0,WeatherDisplay:10.37,2013-02-24 01:31:00,
2013-02-23 20:40:00,33.6,33.1,29.93,South,178,0.0,1.0,98,0.00,OVC,SCT,0.00,0.0,WeatherDisplay:10.37,2013-02-24 01:40:00,
2013-02-23 20:45:00,33.5,33.0,29.93,South,180,0.0,1.0,98,0.00,OVC,SCT,0.00,0.0,WeatherDisplay:10.37,2013-02-24 01:45:00,
2013-02-23 20:55:00,33.4,32.9,29.93,WSW,253,0.0,1.0,98,0.00,OVC,SCT,0.00,0.0,WeatherDisplay:10.37,2013-02-24 01:55:00,
2013-02-23 21:01:00,33.3,32.8,29.93,West,270,0.0,1.0,98,0.00,OVC,SCT,0.00,0.0,WeatherDisplay:10.37,2013-02-24 02:01:00,
2013-02-23 21:10:00,33.3,32.8,29.92,WSW,239,0.0,2.0,98,0.00,BKN,SCT,0.00,0.0,WeatherDisplay:10.37,2013-02-24 02:10:00,
2013-02-23 21:16:00,33.3,32.8,29.91,SSE,151,0.0,2.0,98,0.00,BKN,SCT,0.00,0.0,WeatherDisplay:10.37,2013-02-24 02:16:00,
2013-02-23 21:25:00,33.3,32.8,29.91,SE,135,0.0,1.0,98,0.00,BKN,SCT,0.00,0.0,WeatherDisplay:10.37,2013-02-24 02:25:00,
2013-02-23 21:31:00,33.3,32.8,29.91,SE,135,0.0,1.0,98,0.00,BKN,SCT,0.00,0.0,WeatherDisplay:10.37,2013-02-24 02:31:00,
2013-02-23 21:40:00,33.3,33.0,29.91,West,269,1.0,2.0,99,0.00,BKN,SCT,0.00,0.0,WeatherDisplay:10.37,2013-02-24 02:40:00,
2013-02-23 21:45:00,33.3,33.0,29.91,West,276,1.0,2.0,99,0.00,BKN,SCT,0.00,0.0,WeatherDisplay:10.37,2013-02-24 02:45:00,
2013-02-23 21:55:00,33.3,33.0,29.90,NW,320,0.0,1.0,99,0.00,BKN,SCT,0.00,0.0,WeatherDisplay:10.37,2013-02-24 02:55:00,
2013-02-23 22:01:00,33.3,33.0,29.90,NNW,341,1.0,2.0,99,0.00,BKN,SCT,0.00,0.0,WeatherDisplay:10.37,2013-02-24 03:01:00,
2013-02-23 22:10:00,33.3,33.0,29.90,NNE,14,1.0,3.0,99,0.00,BKN,SCT,0.00,0.0,WeatherDisplay:10.37,2013-02-24 03:10:00,
2013-02-23 22:15:00,33.3,33.0,29.89,NE,38,0.0,3.0,99,0.00,BKN,SCT,0.00,0.0,WeatherDisplay:10.37,2013-02-24 03:15:00,
2013-02-23 22:20:00,33.3,33.0,29.88,NE,43,0.0,2.0,99,0.00,BKN,SCT,0.00,0.0,WeatherDisplay:10.37,2013-02-24 03:20:00,
2013-02-23 22:30:00,33.3,33.0,29.89,NNE,27,1.0,2.0,99,0.00,BKN,SCT,0.00,0.0,WeatherDisplay:10.37,2013-02-24 03:30:00,
2013-02-23 22:40:00,33.4,33.2,29.89,NNW,338,0.0,2.0,99,0.00,BKN,SCT,0.00,0.0,WeatherDisplay:10.37,2013-02-24 03:40:00,
2013-02-23 22:45:00,33.4,33.2,29.88,North,358,1.0,2.0,99,0.00,BKN,SCT,0.00,0.0,WeatherDisplay:10.37,2013-02-24 03:45:00,
2013-02-23 22:55:00,33.4,33.1,29.88,North,359,1.0,3.0,99,0.00,BKN,SCT,0.00,0.0,WeatherDisplay:10.37,2013-02-24 03:55:00,
2013-02-23 23:01:00,33.3,33.1,29.88,NNW,345,0.0,2.0,99,0.00,BKN,SCT,0.00,0.0,WeatherDisplay:10.37,2013-02-24 04:01:00,
2013-02-23 23:10:00,33.4,33.1,29.87,NNW,334,1.0,3.0,99,0.00,BKN,SCT,0.00,0.0,WeatherDisplay:10.37,2013-02-24 04:10:00,
2013-02-23 23:15:00,33.4,33.2,29.87,North,9,0.0,3.0,99,0.00,BKN,SCT,0.00,0.0,WeatherDisplay:10.37,2013-02-24 04:15:00,
2013-02-23 23:25:00,33.3,33.0,29.86,North,7,0.0,2.0,99,0.00,BKN,SCT,0.00,0.0,WeatherDisplay:10.37,2013-02-24 04:25:00,
2013-02-23 23:30:00,33.3,33.0,29.86,North,0,0.0,2.0,99,0.00,BKN,SCT,0.00,0.0,WeatherDisplay:10.37,2013-02-24 04:30:00,
2013-02-23 23:40:00,33.4,33.2,29.85,North,11,0.0,2.0,99,0.00,BKN,SCT,0.00,0.0,WeatherDisplay:10.37,2013-02-24 04:40:00,
2013-02-23 23:45:00,33.4,33.2,29.85,NE,38,1.0,6.0,99,0.00,BKN,SCT,0.00,0.0,WeatherDisplay:10.37,2013-02-24 04:45:00,
2013-02-23 23:55:00,33.6,33.4,29.84,NNE,25,0.0,4.0,99,0.00,BKN,SCT,0.00,0.0,WeatherDisplay:10.37,2013-02-24 04:55:00,